sensor_id;sensor_type;location;lat;lon;timestamp;temperature;humidity
3360;DHT22;1693;49.602;11.046;2023-07-22T05:50:55;14.30;99.90
3360;DHT22;1693;49.602;11.046;2023-07-22T05:55:49;14.10;99.90
3360;DHT22;1693;49.602;11.046;2023-07-22T09:51:38;19.60;99.90
3360;DHT22;1693;49.602;11.046;2023-07-22T09:54:06;20.00;99.90
3360;DHT22;1693;49.602;11.046;2023-07-22T10:01:40;21.40;99.90
3360;DHT22;1693;49.602;11.046;2023-07-22T10:04:08;21.20;99.90
3360;DHT22;1693;49.602;11.046;2023-07-22T10:06:38;21.30;99.90
3360;DHT22;1693;49.602;11.046;2023-07-22T10:09:08;21.90;99.90
3360;DHT22;1693;49.602;11.046;2023-07-22T10:11:37;22.30;99.90
3360;DHT22;1693;49.602;11.046;2023-07-22T10:14:07;22.60;99.90
3360;DHT22;1693;49.602;11.046;2023-07-22T10:16:36;23.30;99.90
3360;DHT22;1693;49.602;11.046;2023-07-22T10:19:06;22.90;99.90
3360;DHT22;1693;49.602;11.046;2023-07-22T10:21:33;22.70;99.90
3360;DHT22;1693;49.602;11.046;2023-07-22T10:24:02;22.40;99.90
3360;DHT22;1693;49.602;11.046;2023-07-22T10:26:30;22.10;99.90
3360;DHT22;1693;49.602;11.046;2023-07-22T10:28:58;21.60;99.90
3360;DHT22;1693;49.602;11.046;2023-07-22T10:31:30;21.40;99.90
3360;DHT22;1693;49.602;11.046;2023-07-22T10:33:57;21.80;99.90
3360;DHT22;1693;49.602;11.046;2023-07-22T10:36:29;21.60;99.90
3360;DHT22;1693;49.602;11.046;2023-07-22T10:39:03;21.70;99.90
3360;DHT22;1693;49.602;11.046;2023-07-22T10:41:32;21.90;99.90
3360;DHT22;1693;49.602;11.046;2023-07-22T10:44:00;21.80;99.90
3360;DHT22;1693;49.602;11.046;2023-07-22T10:46:38;22.00;99.90
3360;DHT22;1693;49.602;11.046;2023-07-22T10:49:13;22.30;99.90
3360;DHT22;1693;49.602;11.046;2023-07-22T10:51:41;22.40;99.90
3360;DHT22;1693;49.602;11.046;2023-07-22T10:54:15;22.50;99.90
3360;DHT22;1693;49.602;11.046;2023-07-22T10:56:43;23.00;99.90
3360;DHT22;1693;49.602;11.046;2023-07-22T10:59:11;23.20;99.90
3360;DHT22;1693;49.602;11.046;2023-07-22T11:01:40;22.80;99.90
3360;DHT22;1693;49.602;11.046;2023-07-22T11:04:21;22.70;99.90
3360;DHT22;1693;49.602;11.046;2023-07-22T11:06:54;23.60;99.90
3360;DHT22;1693;49.602;11.046;2023-07-22T11:09:34;24.60;99.90
3360;DHT22;1693;49.602;11.046;2023-07-22T11:12:03;25.20;99.90
3360;DHT22;1693;49.602;11.046;2023-07-22T11:14:31;25.60;99.90
3360;DHT22;1693;49.602;11.046;2023-07-22T11:17:01;25.60;98.00
3360;DHT22;1693;49.602;11.046;2023-07-22T11:19:30;26.10;97.40
3360;DHT22;1693;49.602;11.046;2023-07-22T11:26:52;27.70;90.70
3360;DHT22;1693;49.602;11.046;2023-07-22T11:29:20;27.20;89.10
3360;DHT22;1693;49.602;11.046;2023-07-22T11:31:49;27.10;91.70
3360;DHT22;1693;49.602;11.046;2023-07-22T11:34:19;27.30;88.90
3360;DHT22;1693;49.602;11.046;2023-07-22T11:36:47;27.20;87.00
3360;DHT22;1693;49.602;11.046;2023-07-22T11:39:15;26.80;87.40
3360;DHT22;1693;49.602;11.046;2023-07-22T11:41:43;26.30;87.80
3360;DHT22;1693;49.602;11.046;2023-07-22T11:44:12;26.50;90.00
3360;DHT22;1693;49.602;11.046;2023-07-22T11:46:57;26.30;89.70
3360;DHT22;1693;49.602;11.046;2023-07-22T11:49:27;26.50;89.40
3360;DHT22;1693;49.602;11.046;2023-07-22T11:51:55;26.40;90.90
3360;DHT22;1693;49.602;11.046;2023-07-22T11:54:23;27.20;84.90
3360;DHT22;1693;49.602;11.046;2023-07-22T11:56:50;27.80;86.30
3360;DHT22;1693;49.602;11.046;2023-07-22T11:59:17;28.20;84.00
3360;DHT22;1693;49.602;11.046;2023-07-22T12:04:13;27.50;99.90
3360;DHT22;1693;49.602;11.046;2023-07-22T12:06:42;27.20;81.20
3360;DHT22;1693;49.602;11.046;2023-07-22T12:09:09;26.90;85.00
3360;DHT22;1693;49.602;11.046;2023-07-22T12:11:37;26.80;81.70
3360;DHT22;1693;49.602;11.046;2023-07-22T12:14:08;26.20;85.30
3360;DHT22;1693;49.602;11.046;2023-07-22T12:16:37;26.10;85.30
3360;DHT22;1693;49.602;11.046;2023-07-22T12:19:04;26.30;85.30
3360;DHT22;1693;49.602;11.046;2023-07-22T12:21:32;26.90;82.90
3360;DHT22;1693;49.602;11.046;2023-07-22T12:24:01;27.50;81.50
3360;DHT22;1693;49.602;11.046;2023-07-22T12:26:29;27.50;80.50
3360;DHT22;1693;49.602;11.046;2023-07-22T12:28:56;27.70;80.30
3360;DHT22;1693;49.602;11.046;2023-07-22T12:31:25;29.20;79.80
3360;DHT22;1693;49.602;11.046;2023-07-22T12:33:52;30.70;74.00
3360;DHT22;1693;49.602;11.046;2023-07-22T12:36:19;31.60;68.20
3360;DHT22;1693;49.602;11.046;2023-07-22T12:38:46;31.90;64.20
3360;DHT22;1693;49.602;11.046;2023-07-22T12:43:41;33.40;90.10
3360;DHT22;1693;49.602;11.046;2023-07-22T12:46:08;32.80;57.10
3360;DHT22;1693;49.602;11.046;2023-07-22T12:48:35;32.20;59.30
3360;DHT22;1693;49.602;11.046;2023-07-22T12:53:33;31.20;56.10
3360;DHT22;1693;49.602;11.046;2023-07-22T12:56:00;30.00;59.40
3360;DHT22;1693;49.602;11.046;2023-07-22T12:58:30;29.00;59.20
3360;DHT22;1693;49.602;11.046;2023-07-22T13:00:57;28.40;61.50
3360;DHT22;1693;49.602;11.046;2023-07-22T13:03:24;28.60;82.20
3360;DHT22;1693;49.602;11.046;2023-07-22T13:05:51;29.40;90.40
3360;DHT22;1693;49.602;11.046;2023-07-22T13:08:18;30.50;59.80
3360;DHT22;1693;49.602;11.046;2023-07-22T13:13:12;29.00;93.60
3360;DHT22;1693;49.602;11.046;2023-07-22T13:15:41;29.00;95.00
3360;DHT22;1693;49.602;11.046;2023-07-22T13:18:08;28.70;95.70
3360;DHT22;1693;49.602;11.046;2023-07-22T13:25:29;28.10;86.20
3360;DHT22;1693;49.602;11.046;2023-07-22T13:27:56;28.90;61.90
3360;DHT22;1693;49.602;11.046;2023-07-22T13:32:52;30.60;91.90
3360;DHT22;1693;49.602;11.046;2023-07-22T13:35:19;31.20;59.50
3360;DHT22;1693;49.602;11.046;2023-07-22T13:37:46;31.30;57.70
3360;DHT22;1693;49.602;11.046;2023-07-22T13:47:35;33.60;53.90
3360;DHT22;1693;49.602;11.046;2023-07-22T13:50:05;33.20;53.70
3360;DHT22;1693;49.602;11.046;2023-07-22T13:52:33;32.30;54.00
3360;DHT22;1693;49.602;11.046;2023-07-22T14:15:01;29.80;88.70
3360;DHT22;1693;49.602;11.046;2023-07-22T14:17:30;29.70;57.70
3360;DHT22;1693;49.602;11.046;2023-07-22T14:19:57;30.80;58.20
3360;DHT22;1693;49.602;11.046;2023-07-22T14:22:26;31.70;58.80
3360;DHT22;1693;49.602;11.046;2023-07-22T14:24:53;32.70;54.50
3360;DHT22;1693;49.602;11.046;2023-07-22T14:27:20;33.00;54.20
3360;DHT22;1693;49.602;11.046;2023-07-22T14:32:14;32.20;87.10
3360;DHT22;1693;49.602;11.046;2023-07-22T14:34:41;31.10;54.50
3360;DHT22;1693;49.602;11.046;2023-07-22T14:37:09;31.00;55.60
3360;DHT22;1693;49.602;11.046;2023-07-22T14:39:37;31.40;55.80
3360;DHT22;1693;49.602;11.046;2023-07-22T14:42:08;30.20;55.00
3360;DHT22;1693;49.602;11.046;2023-07-22T14:44:37;30.60;55.90
3360;DHT22;1693;49.602;11.046;2023-07-22T14:49:31;29.90;90.20
3360;DHT22;1693;49.602;11.046;2023-07-22T14:52:09;29.10;57.50
3360;DHT22;1693;49.602;11.046;2023-07-22T14:55:21;28.50;59.30
3360;DHT22;1693;49.602;11.046;2023-07-22T14:58:24;28.90;60.10
3360;DHT22;1693;49.602;11.046;2023-07-22T15:00:51;30.50;58.70
3360;DHT22;1693;49.602;11.046;2023-07-22T15:03:18;30.90;57.10
3360;DHT22;1693;49.602;11.046;2023-07-22T15:05:45;30.60;56.20
3360;DHT22;1693;49.602;11.046;2023-07-22T15:08:12;32.70;55.20
3360;DHT22;1693;49.602;11.046;2023-07-22T15:10:40;33.00;53.60
3360;DHT22;1693;49.602;11.046;2023-07-22T15:15:35;31.50;91.20
3360;DHT22;1693;49.602;11.046;2023-07-22T15:18:02;31.30;54.70
3360;DHT22;1693;49.602;11.046;2023-07-22T15:20:29;31.40;54.40
3360;DHT22;1693;49.602;11.046;2023-07-22T15:25:24;30.30;61.20
3360;DHT22;1693;49.602;11.046;2023-07-22T15:27:52;30.30;65.60
3360;DHT22;1693;49.602;11.046;2023-07-22T15:30:19;29.10;57.30
3360;DHT22;1693;49.602;11.046;2023-07-22T15:32:46;29.20;57.30
3360;DHT22;1693;49.602;11.046;2023-07-22T15:37:41;29.90;95.10
3360;DHT22;1693;49.602;11.046;2023-07-22T15:40:08;30.60;55.30
3360;DHT22;1693;49.602;11.046;2023-07-22T15:42:35;30.80;54.60
3360;DHT22;1693;49.602;11.046;2023-07-22T15:45:04;30.20;54.50
3360;DHT22;1693;49.602;11.046;2023-07-22T15:57:20;30.80;93.40
3360;DHT22;1693;49.602;11.046;2023-07-22T15:59:47;31.80;54.10
3360;DHT22;1693;49.602;11.046;2023-07-22T16:04:43;30.60;88.40
3360;DHT22;1693;49.602;11.046;2023-07-22T16:07:10;29.60;53.70
3360;DHT22;1693;49.602;11.046;2023-07-22T16:09:37;29.00;54.70
3360;DHT22;1693;49.602;11.046;2023-07-22T16:12:04;28.30;54.50
3360;DHT22;1693;49.602;11.046;2023-07-22T16:14:31;28.50;55.50
3360;DHT22;1693;49.602;11.046;2023-07-22T16:16:58;29.00;54.70
3360;DHT22;1693;49.602;11.046;2023-07-22T16:19:27;29.20;54.10
3360;DHT22;1693;49.602;11.046;2023-07-22T16:21:54;28.90;54.50
3360;DHT22;1693;49.602;11.046;2023-07-22T16:24:27;28.60;55.20
3360;DHT22;1693;49.602;11.046;2023-07-22T16:27:13;28.80;55.30
3360;DHT22;1693;49.602;11.046;2023-07-22T16:29:57;27.90;55.70
3360;DHT22;1693;49.602;11.046;2023-07-22T16:32:24;27.60;55.80
3360;DHT22;1693;49.602;11.046;2023-07-22T16:34:52;27.30;56.00
3360;DHT22;1693;49.602;11.046;2023-07-22T16:37:19;27.10;57.00
3360;DHT22;1693;49.602;11.046;2023-07-22T16:39:46;27.40;57.60
3360;DHT22;1693;49.602;11.046;2023-07-22T16:47:09;29.20;94.10
3360;DHT22;1693;49.602;11.046;2023-07-22T16:49:39;29.90;55.30
3360;DHT22;1693;49.602;11.046;2023-07-22T16:55:33;31.40;57.60
3360;DHT22;1693;49.602;11.046;2023-07-22T16:58:01;30.50;52.50
3360;DHT22;1693;49.602;11.046;2023-07-22T17:05:24;32.20;91.80
3360;DHT22;1693;49.602;11.046;2023-07-22T17:07:51;32.50;49.70
3360;DHT22;1693;49.602;11.046;2023-07-22T17:10:18;32.10;49.90
3360;DHT22;1693;49.602;11.046;2023-07-22T17:12:47;32.50;49.60
3360;DHT22;1693;49.602;11.046;2023-07-22T17:15:14;32.70;49.90
3360;DHT22;1693;49.602;11.046;2023-07-22T17:17:41;33.00;50.40
3360;DHT22;1693;49.602;11.046;2023-07-22T17:20:10;32.70;49.10
3360;DHT22;1693;49.602;11.046;2023-07-22T17:22:37;31.50;49.20
3360;DHT22;1693;49.602;11.046;2023-07-22T17:25:05;30.30;50.40
3360;DHT22;1693;49.602;11.046;2023-07-22T17:27:32;30.20;50.60
3360;DHT22;1693;49.602;11.046;2023-07-22T17:30:00;29.40;51.50
3360;DHT22;1693;49.602;11.046;2023-07-22T17:32:28;28.60;52.40
3360;DHT22;1693;49.602;11.046;2023-07-22T17:34:55;28.10;53.20
3360;DHT22;1693;49.602;11.046;2023-07-22T17:37:23;27.90;53.50
3360;DHT22;1693;49.602;11.046;2023-07-22T17:39:52;27.80;53.90
3360;DHT22;1693;49.602;11.046;2023-07-22T17:42:20;28.20;53.70
3360;DHT22;1693;49.602;11.046;2023-07-22T17:44:47;28.30;53.70
3360;DHT22;1693;49.602;11.046;2023-07-22T17:47:15;28.30;53.00
3360;DHT22;1693;49.602;11.046;2023-07-22T17:49:42;27.80;53.90
3360;DHT22;1693;49.602;11.046;2023-07-22T17:52:09;27.20;54.20
3360;DHT22;1693;49.602;11.046;2023-07-22T18:48:43;21.00;99.90
3360;DHT22;1693;49.602;11.046;2023-07-22T18:51:10;21.00;98.60
3360;DHT22;1693;49.602;11.046;2023-07-22T18:53:37;20.80;99.10
3360;DHT22;1693;49.602;11.046;2023-07-22T18:56:06;20.50;99.90
3360;DHT22;1693;49.602;11.046;2023-07-22T18:58:33;20.30;99.90
3360;DHT22;1693;49.602;11.046;2023-07-22T19:01:01;20.00;99.90
3360;DHT22;1693;49.602;11.046;2023-07-22T19:03:28;19.90;99.90
3360;DHT22;1693;49.602;11.046;2023-07-22T19:05:56;19.80;99.90
3360;DHT22;1693;49.602;11.046;2023-07-22T19:08:25;19.70;99.90
3360;DHT22;1693;49.602;11.046;2023-07-22T19:10:52;19.70;99.90
3360;DHT22;1693;49.602;11.046;2023-07-22T19:13:20;19.60;99.90
3360;DHT22;1693;49.602;11.046;2023-07-22T19:15:50;19.50;99.90
3360;DHT22;1693;49.602;11.046;2023-07-22T19:18:17;19.30;99.90
3360;DHT22;1693;49.602;11.046;2023-07-22T19:20:54;19.20;99.90
3360;DHT22;1693;49.602;11.046;2023-07-22T19:23:21;19.00;99.90
3360;DHT22;1693;49.602;11.046;2023-07-22T19:25:50;18.80;99.90
3360;DHT22;1693;49.602;11.046;2023-07-22T19:28:17;18.80;99.90
3360;DHT22;1693;49.602;11.046;2023-07-22T19:30:45;18.70;99.90
3360;DHT22;1693;49.602;11.046;2023-07-22T19:35:41;18.30;99.90
3360;DHT22;1693;49.602;11.046;2023-07-22T19:38:08;18.10;99.90
3360;DHT22;1693;49.602;11.046;2023-07-22T19:40:35;17.90;99.90
3360;DHT22;1693;49.602;11.046;2023-07-22T19:43:01;17.80;99.90
3360;DHT22;1693;49.602;11.046;2023-07-22T19:45:29;17.70;99.90
3360;DHT22;1693;49.602;11.046;2023-07-22T19:47:57;17.70;99.90
3360;DHT22;1693;49.602;11.046;2023-07-22T19:50:24;17.80;99.90
3360;DHT22;1693;49.602;11.046;2023-07-22T19:52:52;17.80;99.90
3360;DHT22;1693;49.602;11.046;2023-07-22T19:55:20;17.60;99.90
3360;DHT22;1693;49.602;11.046;2023-07-22T19:57:47;17.60;99.90
3360;DHT22;1693;49.602;11.046;2023-07-22T20:00:14;17.50;99.90
3360;DHT22;1693;49.602;11.046;2023-07-22T20:02:42;17.50;99.90
3360;DHT22;1693;49.602;11.046;2023-07-22T20:05:10;17.40;99.90
3360;DHT22;1693;49.602;11.046;2023-07-22T20:07:37;17.40;99.90
3360;DHT22;1693;49.602;11.046;2023-07-22T20:10:05;17.10;99.90
3360;DHT22;1693;49.602;11.046;2023-07-22T20:12:32;17.00;99.90
3360;DHT22;1693;49.602;11.046;2023-07-22T20:14:59;16.80;99.90
3360;DHT22;1693;49.602;11.046;2023-07-22T20:17:26;16.80;99.90
3360;DHT22;1693;49.602;11.046;2023-07-22T20:19:53;16.80;99.90
3360;DHT22;1693;49.602;11.046;2023-07-22T20:22:21;16.80;99.90
3360;DHT22;1693;49.602;11.046;2023-07-22T20:24:48;16.70;99.90
3360;DHT22;1693;49.602;11.046;2023-07-22T20:27:15;16.70;99.90
3360;DHT22;1693;49.602;11.046;2023-07-22T20:29:43;16.70;99.90
3360;DHT22;1693;49.602;11.046;2023-07-22T20:32:09;16.60;99.90
3360;DHT22;1693;49.602;11.046;2023-07-22T20:34:36;16.50;99.90
3360;DHT22;1693;49.602;11.046;2023-07-22T20:37:04;16.50;99.90
3360;DHT22;1693;49.602;11.046;2023-07-22T20:39:32;16.30;99.90
3360;DHT22;1693;49.602;11.046;2023-07-22T20:41:59;16.30;99.90
3360;DHT22;1693;49.602;11.046;2023-07-22T20:44:26;16.30;99.90
3360;DHT22;1693;49.602;11.046;2023-07-22T20:46:53;16.10;99.90
3360;DHT22;1693;49.602;11.046;2023-07-22T20:49:20;16.00;99.90
3360;DHT22;1693;49.602;11.046;2023-07-22T20:51:47;16.10;99.90
3360;DHT22;1693;49.602;11.046;2023-07-22T20:54:14;16.00;99.90
3360;DHT22;1693;49.602;11.046;2023-07-22T20:56:42;16.00;99.90
3360;DHT22;1693;49.602;11.046;2023-07-22T20:59:09;15.80;99.90
3360;DHT22;1693;49.602;11.046;2023-07-22T21:04:03;15.80;99.90
3360;DHT22;1693;49.602;11.046;2023-07-22T21:06:31;15.80;99.90
3360;DHT22;1693;49.602;11.046;2023-07-22T21:08:58;15.80;99.90
3360;DHT22;1693;49.602;11.046;2023-07-22T21:11:24;15.70;99.90
3360;DHT22;1693;49.602;11.046;2023-07-22T21:13:54;15.70;99.90
3360;DHT22;1693;49.602;11.046;2023-07-22T21:16:21;15.60;99.90
3360;DHT22;1693;49.602;11.046;2023-07-22T21:18:48;15.40;99.90
3360;DHT22;1693;49.602;11.046;2023-07-22T21:21:15;15.40;99.90
3360;DHT22;1693;49.602;11.046;2023-07-22T21:23:42;15.30;99.90
3360;DHT22;1693;49.602;11.046;2023-07-22T21:26:09;15.30;99.90
3360;DHT22;1693;49.602;11.046;2023-07-22T21:28:37;15.20;99.90
3360;DHT22;1693;49.602;11.046;2023-07-22T21:31:05;15.10;99.90
3360;DHT22;1693;49.602;11.046;2023-07-22T21:33:32;15.00;99.90
3360;DHT22;1693;49.602;11.046;2023-07-22T21:35:59;15.00;99.90
3360;DHT22;1693;49.602;11.046;2023-07-22T21:38:26;14.90;99.90
3360;DHT22;1693;49.602;11.046;2023-07-22T21:40:54;14.90;99.90
3360;DHT22;1693;49.602;11.046;2023-07-22T21:43:21;14.90;99.90
3360;DHT22;1693;49.602;11.046;2023-07-22T21:45:48;14.90;99.90
3360;DHT22;1693;49.602;11.046;2023-07-22T21:48:17;14.80;99.90
3360;DHT22;1693;49.602;11.046;2023-07-22T21:50:44;14.80;99.90
3360;DHT22;1693;49.602;11.046;2023-07-22T21:53:11;14.80;99.90
3360;DHT22;1693;49.602;11.046;2023-07-22T21:55:38;14.70;99.90
3360;DHT22;1693;49.602;11.046;2023-07-22T21:58:05;14.70;99.90
3360;DHT22;1693;49.602;11.046;2023-07-22T22:00:33;14.70;99.90
3360;DHT22;1693;49.602;11.046;2023-07-22T22:03:00;14.60;99.90
3360;DHT22;1693;49.602;11.046;2023-07-22T22:05:30;14.50;99.90
3360;DHT22;1693;49.602;11.046;2023-07-22T22:07:57;14.60;99.90
3360;DHT22;1693;49.602;11.046;2023-07-22T22:10:24;14.50;99.90
3360;DHT22;1693;49.602;11.046;2023-07-22T22:12:51;14.50;99.90
3360;DHT22;1693;49.602;11.046;2023-07-22T22:15:18;14.50;99.90
3360;DHT22;1693;49.602;11.046;2023-07-22T22:17:46;14.50;99.90
3360;DHT22;1693;49.602;11.046;2023-07-22T22:20:13;14.50;99.90
3360;DHT22;1693;49.602;11.046;2023-07-22T22:22:41;14.50;99.90
3360;DHT22;1693;49.602;11.046;2023-07-22T22:25:09;14.50;99.90
3360;DHT22;1693;49.602;11.046;2023-07-22T22:27:36;14.50;99.90
3360;DHT22;1693;49.602;11.046;2023-07-22T22:30:03;14.40;99.90
3360;DHT22;1693;49.602;11.046;2023-07-22T22:32:30;14.40;99.90
3360;DHT22;1693;49.602;11.046;2023-07-22T22:34:57;14.50;99.90
3360;DHT22;1693;49.602;11.046;2023-07-22T22:37:25;14.40;99.90
3360;DHT22;1693;49.602;11.046;2023-07-22T22:39:53;14.40;99.90
3360;DHT22;1693;49.602;11.046;2023-07-22T22:42:20;14.40;99.90
3360;DHT22;1693;49.602;11.046;2023-07-22T22:44:47;14.40;99.90
3360;DHT22;1693;49.602;11.046;2023-07-22T22:47:14;14.50;99.90
3360;DHT22;1693;49.602;11.046;2023-07-22T22:49:41;14.60;99.90
3360;DHT22;1693;49.602;11.046;2023-07-22T22:52:08;14.60;99.90
3360;DHT22;1693;49.602;11.046;2023-07-22T22:54:35;14.70;99.90
3360;DHT22;1693;49.602;11.046;2023-07-22T22:57:04;14.70;99.90
3360;DHT22;1693;49.602;11.046;2023-07-22T22:59:31;14.80;99.90
3360;DHT22;1693;49.602;11.046;2023-07-22T23:01:58;14.80;99.90
3360;DHT22;1693;49.602;11.046;2023-07-22T23:04:25;14.90;99.90
3360;DHT22;1693;49.602;11.046;2023-07-22T23:06:52;14.90;99.90
3360;DHT22;1693;49.602;11.046;2023-07-22T23:09:19;14.90;99.90
3360;DHT22;1693;49.602;11.046;2023-07-22T23:11:46;15.00;99.90
3360;DHT22;1693;49.602;11.046;2023-07-22T23:14:14;15.00;99.90
3360;DHT22;1693;49.602;11.046;2023-07-22T23:16:41;15.00;99.90
3360;DHT22;1693;49.602;11.046;2023-07-22T23:19:08;14.90;99.90
3360;DHT22;1693;49.602;11.046;2023-07-22T23:21:35;15.00;99.90
3360;DHT22;1693;49.602;11.046;2023-07-22T23:24:02;15.00;99.90
3360;DHT22;1693;49.602;11.046;2023-07-22T23:26:29;15.00;99.90
3360;DHT22;1693;49.602;11.046;2023-07-22T23:28:57;15.10;99.90
3360;DHT22;1693;49.602;11.046;2023-07-22T23:31:25;15.00;99.90
3360;DHT22;1693;49.602;11.046;2023-07-22T23:33:52;15.00;99.90
3360;DHT22;1693;49.602;11.046;2023-07-22T23:43:41;15.00;99.90
3360;DHT22;1693;49.602;11.046;2023-07-22T23:46:08;15.10;99.90
3360;DHT22;1693;49.602;11.046;2023-07-22T23:48:36;15.00;99.90
3360;DHT22;1693;49.602;11.046;2023-07-22T23:51:03;15.00;99.90
3360;DHT22;1693;49.602;11.046;2023-07-22T23:53:30;14.90;99.90
3360;DHT22;1693;49.602;11.046;2023-07-22T23:55:57;14.80;99.90
3360;DHT22;1693;49.602;11.046;2023-07-22T23:58:24;14.80;99.90
